Strona główna
METAR-TAF:

METAR-TAF

Lotnisko :

Port lotniczy Pekin

Pekin, Chiny

Szerokość geograficzna: 39-56N, Długość geograficzna: 116-17E, wysokość: 55 m

Aktualna obserwacja pogody

Raport powstał 14 minut temu, godzina 09:00 UTC
Wiatr 6 kt od południowo-południowy wschód
Temperatura 26°C
Wilgotność 79%
Ciśnienie 1007 hPa
Widzialność 10 km lub więcej
Mało chmury na wysokości 3300 ft, Cumulusy wypiętrznone.
Przerywane chmury na wysokości 3300 ft

METAR: ZBAA 190900Z 15003MPS 9999 FEW033TCU BKN033 26/22 Q1007 NOSIG

czas: 17:14 (09:14 UTC)

Prognoza

Raport powstał 5 godziny i 54 minut temu, godzina 03:20 UTC
Prognoza ważna od 19 godzina 06 UTC do 20 godzina 06 UTC
Wiatr 8 kt od wschodnio-południowy wschód
Widzialność: 4000 m
zamglenie
Przejściowo
od 19 godzina 06 UTC do 19 godzina 12 UTC
Widzialność: 2800 m
słaby deszcz, zamglenie

TAF: ZBAA 190320Z 1906/2006 12004MPS 4000 BR NSC TX29/1906Z TN23/1921Z TEMPO 1906/1912 2800 -RA BR

Obserwacja i prognoza pogody dla ponad 4000 lotnisk (raport METAR i TAF).

Dostępne stacje oznaczono żółtymi i czerwonymi punktami na mapie.

Najedź kursorem aby zobaczyć nazwę stacji.

Kliknij aby zobaczyć obserwacje i prognozy pogody.

Aby zmienić mapę: kliknij na zielony przycisk z czarnym krzyżykiem, aby powiększyć; na zielony przycisk z myślnikiem, aby pomniejszyć; na zielone strzałki, aby przejść do map sąsiednich.


METAR-TAF: